Time;durP1;ratioP1;P1;durP2;ratioP2;P2;SDS_P1;SDS_P2;PMS_P1;PMS_P2;Temp;Humidity;BMP_temperature;BMP_pressure;BME280_temperature;BME280_humidity;BME280_pressure;Samples;Min_cycle;Max_cycle;Signal;HPM_P1;HPM_P2
2023/11/29 00:01:22;;;;;;;6.55;3.60;;;2.30;99.90;;;;;;5028314;28;20056;-73
2023/11/29 00:03:47;;;;;;;10.93;3.80;;;2.40;99.90;;;;;;5043375;28;20037;-73
2023/11/29 00:06:13;;;;;;;7.97;4.20;;;2.40;99.90;;;;;;5032552;28;20041;-74
2023/11/29 00:08:39;;;;;;;6.88;3.13;;;2.40;99.90;;;;;;5033783;28;20166;-73
2023/11/29 00:11:05;;;;;;;8.77;3.95;;;2.40;99.90;;;;;;5051794;28;20037;-73
2023/11/29 00:13:31;;;;;;;8.13;3.72;;;2.40;99.90;;;;;;5046642;28;20517;-74
2023/11/29 00:15:56;;;;;;;8.60;3.72;;;2.50;99.90;;;;;;5038066;28;20179;-74
2023/11/29 00:18:22;;;;;;;10.43;3.63;;;2.40;99.90;;;;;;5019396;28;20409;-74
2023/11/29 00:20:47;;;;;;;7.55;2.80;;;2.50;99.90;;;;;;5029088;28;20381;-73
2023/11/29 00:23:13;;;;;;;8.13;2.97;;;2.40;99.90;;;;;;5052153;28;20116;-73
2023/11/29 00:25:39;;;;;;;9.38;2.80;;;2.40;99.90;;;;;;5036068;28;20037;-72
2023/11/29 00:28:05;;;;;;;8.10;2.20;;;2.30;99.90;;;;;;5033029;28;20045;-72
2023/11/29 00:30:30;;;;;;;4.07;2.33;;;2.20;99.90;;;;;;5050023;28;20037;-72
2023/11/29 00:32:56;;;;;;;4.18;2.42;;;2.20;99.90;;;;;;5040307;28;20075;-73
2023/11/29 00:35:22;;;;;;;4.70;2.00;;;2.10;99.90;;;;;;5058934;28;20041;-73
2023/11/29 00:37:47;;;;;;;5.80;2.17;;;2.00;99.90;;;;;;5048392;28;20035;-72
2023/11/29 00:40:13;;;;;;;6.25;1.98;;;1.90;99.90;;;;;;5025790;28;20037;-72
2023/11/29 00:42:39;;;;;;;5.05;1.80;;;2.60;99.90;;;;;;5047413;28;20493;-73
2023/11/29 00:45:05;;;;;;;3.92;2.00;;;1.80;99.90;;;;;;5036831;28;20056;-72
2023/11/29 00:47:31;;;;;;;3.90;1.75;;;1.70;99.90;;;;;;5049570;28;20497;-72
2023/11/29 00:49:56;;;;;;;4.15;2.25;;;1.70;99.90;;;;;;5034599;28;20049;-72
2023/11/29 00:52:22;;;;;;;6.05;2.38;;;1.60;99.90;;;;;;5034127;28;20041;-72
2023/11/29 00:54:47;;;;;;;5.97;2.95;;;1.60;99.90;;;;;;5051980;28;20029;-72
2023/11/29 00:57:13;;;;;;;4.63;2.85;;;1.60;99.90;;;;;;5033201;28;20049;-72
2023/11/29 00:59:39;;;;;;;5.30;3.10;;;2.50;99.90;;;;;;5050479;28;20033;-72
2023/11/29 01:02:04;;;;;;;5.85;3.00;;;1.50;99.90;;;;;;5028361;28;20046;-71
2023/11/29 01:04:30;;;;;;;5.32;3.50;;;1.50;99.90;;;;;;5050075;28;20624;-72
2023/11/29 01:06:55;;;;;;;8.32;3.70;;;1.50;99.90;;;;;;5049958;28;20553;-72
2023/11/29 01:09:24;;;;;;;7.95;4.20;;;1.50;99.90;;;;;;5032852;28;20431;-72
2023/11/29 01:11:49;;;;;;;6.90;4.50;;;1.50;99.90;;;;;;5032686;28;20037;-72
2023/11/29 01:14:15;;;;;;;7.38;4.78;;;1.50;99.90;;;;;;5034884;28;20043;-72
2023/11/29 01:16:40;;;;;;;9.52;4.95;;;1.60;99.90;;;;;;5016073;28;20065;-72
2023/11/29 01:19:06;;;;;;;9.07;4.90;;;1.60;99.90;;;;;;5032453;28;20051;-72
2023/11/29 01:21:37;;;;;;;7.95;5.47;;;1.60;99.90;;;;;;5046339;28;20479;-72
2023/11/29 01:24:04;;;;;;;14.85;6.13;;;1.60;99.90;;;;;;5036278;28;20064;-72
2023/11/29 01:26:29;;;;;;;11.95;6.20;;;1.60;99.90;;;;;;5028867;28;20512;-72
2023/11/29 01:28:55;;;;;;;11.00;6.75;;;1.60;99.90;;;;;;5050443;28;20037;-72
2023/11/29 01:31:25;;;;;;;11.73;6.53;;;1.60;99.90;;;;;;5014100;28;20055;-72
2023/11/29 01:33:52;;;;;;;10.23;6.40;;;1.60;99.90;;;;;;5043148;28;20444;-74
2023/11/29 01:36:18;;;;;;;10.48;6.60;;;1.60;99.90;;;;;;5033557;28;20091;-72
2023/11/29 01:38:43;;;;;;;12.77;7.20;;;1.60;99.90;;;;;;5033605;28;20033;-72
2023/11/29 01:41:09;;;;;;;11.35;7.40;;;1.60;99.90;;;;;;5032269;28;20098;-72
2023/11/29 01:43:34;;;;;;;11.30;6.63;;;1.60;99.90;;;;;;5032706;28;20036;-72
2023/11/29 01:46:00;;;;;;;11.50;7.10;;;1.60;99.90;;;;;;5045301;28;20037;-72
2023/11/29 01:48:27;;;;;;;13.18;6.13;;;1.60;99.90;;;;;;5033316;28;20456;-72
2023/11/29 01:50:53;;;;;;;8.73;5.53;;;1.60;99.90;;;;;;5029456;28;20038;-73
2023/11/29 01:53:22;;;;;;;6.90;4.25;;;1.60;99.90;;;;;;5030744;28;20120;-73
2023/11/29 01:55:52;;;;;;;6.95;3.83;;;1.70;99.90;;;;;;5053062;28;20048;-72
2023/11/29 01:58:19;;;;;;;4.95;3.20;;;1.70;99.90;;;;;;5045521;28;20048;-72
2023/11/29 02:00:45;;;;;;;4.90;2.30;;;1.70;99.90;;;;;;5057055;28;20032;-73
2023/11/29 02:03:12;;;;;;;4.32;2.40;;;1.70;99.90;;;;;;5038390;28;20631;-73
2023/11/29 02:05:38;;;;;;;3.08;1.83;;;1.70;99.90;;;;;;5038286;28;20120;-73
2023/11/29 02:08:04;;;;;;;2.67;1.73;;;1.70;99.90;;;;;;5039450;28;20168;-72
2023/11/29 02:10:30;;;;;;;2.95;1.45;;;1.70;99.90;;;;;;5029824;28;20041;-73
2023/11/29 02:12:56;;;;;;;1.50;1.17;;;1.60;99.90;;;;;;5053840;28;20555;-73
2023/11/29 02:15:21;;;;;;;1.20;1.10;;;1.60;99.90;;;;;;5035130;28;20044;-73
2023/11/29 02:17:47;;;;;;;1.02;0.93;;;1.60;99.90;;;;;;5053642;28;20071;-73
2023/11/29 02:20:14;;;;;;;1.67;1.17;;;1.60;99.90;;;;;;5029889;28;20041;-73
2023/11/29 02:22:43;;;;;;;2.72;1.40;;;1.60;99.90;;;;;;5037785;28;20029;-73
2023/11/29 02:25:09;;;;;;;2.88;1.65;;;1.60;99.90;;;;;;5026515;28;20064;-73
2023/11/29 02:27:34;;;;;;;2.70;1.85;;;1.60;99.90;;;;;;5033368;28;20045;-73
2023/11/29 02:30:00;;;;;;;2.33;1.83;;;1.50;99.90;;;;;;5052926;28;20426;-72
2023/11/29 02:32:26;;;;;;;3.22;2.00;;;1.50;99.90;;;;;;5035726;28;20522;-73
2023/11/29 02:34:51;;;;;;;3.70;2.30;;;1.50;99.90;;;;;;5031439;28;20048;-73
2023/11/29 02:37:17;;;;;;;3.83;2.50;;;1.50;99.90;;;;;;5039278;28;20481;-73
2023/11/29 02:39:42;;;;;;;3.97;2.47;;;1.50;99.90;;;;;;5055507;28;20068;-72
2023/11/29 02:42:08;;;;;;;4.25;2.85;;;1.50;99.90;;;;;;5031727;28;20554;-73
2023/11/29 02:44:34;;;;;;;4.60;2.88;;;1.50;99.90;;;;;;5040261;28;20041;-73
2023/11/29 02:46:59;;;;;;;4.90;3.15;;;1.50;99.90;;;;;;5018564;28;20044;-73
2023/11/29 02:49:25;;;;;;;5.32;3.25;;;1.50;99.90;;;;;;5034051;28;20044;-73
2023/11/29 02:51:51;;;;;;;6.70;3.80;;;1.50;99.90;;;;;;5026829;28;20039;-73
2023/11/29 02:54:18;;;;;;;6.07;3.83;;;1.40;99.90;;;;;;5051873;28;20044;-73
2023/11/29 02:56:44;;;;;;;7.97;3.80;;;1.50;99.90;;;;;;5028198;28;20120;-73
2023/11/29 02:59:09;;;;;;;7.00;3.80;;;1.50;99.90;;;;;;5036258;28;20438;-73
2023/11/29 03:01:35;;;;;;;8.15;3.58;;;1.50;99.90;;;;;;5053375;28;20036;-73
2023/11/29 03:04:01;;;;;;;6.15;3.13;;;1.50;99.90;;;;;;5026982;28;20123;-72
2023/11/29 03:06:26;;;;;;;5.90;3.45;;;1.50;99.90;;;;;;5028997;28;20041;-72
2023/11/29 03:08:52;;;;;;;6.90;3.42;;;1.50;99.90;;;;;;5034759;28;20044;-73
2023/11/29 03:11:17;;;;;;;4.90;3.10;;;1.50;99.90;;;;;;5033997;28;20037;-72
2023/11/29 03:13:43;;;;;;;4.47;2.75;;;1.50;99.90;;;;;;5046146;28;20037;-73
2023/11/29 03:16:08;;;;;;;5.25;3.30;;;1.50;99.90;;;;;;5033946;28;20628;-72
2023/11/29 03:18:34;;;;;;;6.70;3.50;;;1.60;99.90;;;;;;5049517;28;20112;-72
2023/11/29 03:21:00;;;;;;;6.28;3.75;;;1.50;99.90;;;;;;5033998;28;20080;-73
2023/11/29 03:23:25;;;;;;;7.20;4.22;;;1.60;99.90;;;;;;5040452;28;20037;-73
2023/11/29 03:25:51;;;;;;;6.90;4.32;;;1.60;99.90;;;;;;5040902;28;20052;-72
2023/11/29 03:28:16;;;;;;;8.68;5.03;;;1.60;99.90;;;;;;5033073;28;20049;-73
2023/11/29 03:30:42;;;;;;;8.73;5.63;;;1.60;99.90;;;;;;5052363;28;20068;-73
2023/11/29 03:33:07;;;;;;;8.15;5.38;;;1.70;99.90;;;;;;5033125;28;20405;-73
2023/11/29 03:35:33;;;;;;;8.93;5.90;;;1.50;99.90;;;;;;5049705;28;20048;-73
2023/11/29 03:37:58;;;;;;;8.50;5.78;;;1.50;99.90;;;;;;5052009;28;20037;-73
2023/11/29 03:40:24;;;;;;;11.82;6.18;;;1.50;99.90;;;;;;5041815;28;20040;-71
2023/11/29 03:42:49;;;;;;;11.25;6.18;;;1.60;99.90;;;;;;5033123;28;20057;-73
2023/11/29 03:45:15;;;;;;;9.00;5.20;;;1.60;99.90;;;;;;5033096;28;20493;-73
2023/11/29 03:47:40;;;;;;;9.57;5.20;;;1.60;99.90;;;;;;5038064;28;20371;-73
2023/11/29 03:50:07;;;;;;;8.63;4.80;;;1.50;99.90;;;;;;5032962;28;20044;-72
2023/11/29 03:52:32;;;;;;;11.48;5.25;;;1.50;99.90;;;;;;5050915;28;20045;-72
2023/11/29 03:54:58;;;;;;;10.63;5.78;;;1.50;99.90;;;;;;5033622;28;20067;-73
2023/11/29 03:57:23;;;;;;;10.68;5.97;;;1.50;99.90;;;;;;5044002;28;20041;-74
2023/11/29 03:59:49;;;;;;;11.15;5.70;;;1.50;99.90;;;;;;5029403;28;20033;-73
2023/11/29 04:02:15;;;;;;;14.60;6.82;;;1.50;99.90;;;;;;5052280;22;20058;-66
2023/11/29 04:04:41;;;;;;;13.80;6.90;;;1.50;99.90;;;;;;5027991;28;20041;-67
2023/11/29 04:07:06;;;;;;;11.00;6.25;;;1.50;99.90;;;;;;5023757;28;20411;-66
2023/11/29 04:09:32;;;;;;;10.02;6.63;;;1.50;99.90;;;;;;5034842;28;20041;-66
2023/11/29 04:11:58;;;;;;;12.07;5.72;;;1.50;99.90;;;;;;5030398;28;20037;-66
2023/11/29 04:14:24;;;;;;;10.05;5.63;;;1.50;99.90;;;;;;5025389;28;20411;-67
2023/11/29 04:16:50;;;;;;;12.98;5.93;;;1.60;99.90;;;;;;5014157;28;20029;-66
2023/11/29 04:19:16;;;;;;;12.45;6.53;;;1.60;99.90;;;;;;5024635;28;20033;-67
2023/11/29 04:21:41;;;;;;;12.38;6.30;;;1.60;99.90;;;;;;5030688;28;20111;-66
2023/11/29 04:24:07;;;;;;;12.57;5.70;;;1.60;99.90;;;;;;5027288;28;20053;-66
2023/11/29 04:26:40;;;;;;;9.02;5.75;;;1.60;99.90;;;;;;5029533;28;20034;-66
2023/11/29 04:29:09;;;;;;;9.98;5.22;;;1.60;99.90;;;;;;5037247;28;20059;-66
2023/11/29 04:31:36;;;;;;;11.35;5.40;;;1.60;99.90;;;;;;5018200;28;20029;-66
2023/11/29 04:34:02;;;;;;;9.70;4.95;;;1.60;99.90;;;;;;5025877;28;20042;-66
2023/11/29 04:36:28;;;;;;;11.40;4.72;;;1.70;99.90;;;;;;5028481;28;20060;-67
2023/11/29 04:38:54;;;;;;;8.52;4.47;;;1.70;99.90;;;;;;5033824;28;20445;-66
2023/11/29 04:41:20;;;;;;;11.40;4.32;;;1.70;99.90;;;;;;5030591;28;20480;-66
2023/11/29 04:43:46;;;;;;;12.50;4.57;;;1.70;99.90;;;;;;5022612;28;20029;-66
2023/11/29 04:46:12;;;;;;;10.35;4.10;;;1.80;99.90;;;;;;5028216;28;20549;-66
2023/11/29 04:48:38;;;;;;;6.03;3.67;;;1.80;99.90;;;;;;5028082;28;20380;-66
2023/11/29 04:51:04;;;;;;;7.07;3.15;;;1.80;99.90;;;;;;5026185;28;20040;-66
2023/11/29 04:53:31;;;;;;;5.60;3.10;;;1.80;99.90;;;;;;5028273;28;20033;-66
2023/11/29 04:55:56;;;;;;;9.65;3.33;;;1.90;99.90;;;;;;5028641;28;20045;-66
2023/11/29 04:58:23;;;;;;;6.95;2.85;;;1.90;99.90;;;;;;5028414;28;20050;-66
2023/11/29 05:00:49;;;;;;;8.00;2.20;;;1.90;99.90;;;;;;5031024;28;20510;-66
2023/11/29 05:03:20;;;;;;;8.18;2.60;;;1.80;99.90;;;;;;5030070;28;20029;-67
2023/11/29 05:05:47;;;;;;;10.75;2.80;;;1.90;99.90;;;;;;5027290;28;20117;-66
2023/11/29 05:08:13;;;;;;;6.63;2.30;;;1.90;99.90;;;;;;5029912;28;20049;-67
2023/11/29 05:10:38;;;;;;;6.05;2.35;;;1.90;99.90;;;;;;5032561;28;20041;-67
2023/11/29 05:13:06;;;;;;;7.57;2.85;;;1.90;99.90;;;;;;5029813;28;20113;-67
2023/11/29 05:15:35;;;;;;;7.28;2.50;;;1.80;99.90;;;;;;5029616;28;20034;-67
2023/11/29 05:18:02;;;;;;;9.77;2.80;;;1.90;99.90;;;;;;5025787;28;20081;-67
2023/11/29 05:20:28;;;;;;;6.07;2.50;;;1.90;99.90;;;;;;5028045;28;20041;-67
2023/11/29 05:22:53;;;;;;;7.38;2.42;;;1.90;99.90;;;;;;5029537;28;20049;-67
2023/11/29 05:25:19;;;;;;;6.00;2.67;;;1.90;99.90;;;;;;5028133;28;20049;-67
2023/11/29 05:27:46;;;;;;;10.32;3.13;;;1.90;99.90;;;;;;5029148;28;20037;-67
2023/11/29 05:30:12;;;;;;;7.75;3.00;;;1.90;99.90;;;;;;5032313;28;20046;-67
2023/11/29 05:32:37;;;;;;;6.28;2.33;;;1.90;99.90;;;;;;5031961;28;20033;-67
2023/11/29 05:35:03;;;;;;;7.20;2.70;;;2.00;99.90;;;;;;5033581;28;20114;-67
2023/11/29 05:37:29;;;;;;;7.63;2.60;;;1.90;99.90;;;;;;5023268;28;20049;-67
2023/11/29 05:39:55;;;;;;;9.30;2.13;;;2.00;99.90;;;;;;5029110;28;20699;-67
2023/11/29 05:42:21;;;;;;;10.32;2.90;;;2.00;99.90;;;;;;5028327;28;20498;-67
2023/11/29 05:44:47;;;;;;;8.80;2.33;;;2.00;99.90;;;;;;5025389;28;20045;-67
2023/11/29 05:47:13;;;;;;;7.05;2.90;;;2.00;99.90;;;;;;5033505;28;20067;-67
2023/11/29 05:49:39;;;;;;;8.00;2.65;;;2.10;99.90;;;;;;5035679;28;20037;-67
2023/11/29 05:52:05;;;;;;;9.95;2.95;;;2.00;99.90;;;;;;5033249;28;20132;-67
2023/11/29 05:54:31;;;;;;;8.95;2.70;;;2.10;99.90;;;;;;5030052;28;20033;-67
2023/11/29 05:56:57;;;;;;;7.80;2.60;;;2.10;99.90;;;;;;5031593;28;20602;-67
2023/11/29 05:59:23;;;;;;;8.15;2.40;;;2.10;99.90;;;;;;5034742;28;20082;-67
2023/11/29 06:01:51;;;;;;;7.82;2.50;;;2.40;99.90;;;;;;5024883;28;20033;-67
2023/11/29 06:04:17;;;;;;;9.15;2.30;;;2.20;99.90;;;;;;5032777;28;20041;-66
2023/11/29 06:06:43;;;;;;;5.80;2.10;;;2.20;99.90;;;;;;5028947;28;20395;-67
2023/11/29 06:09:09;;;;;;;11.05;2.28;;;2.30;99.90;;;;;;5036665;28;20045;-67
2023/11/29 06:11:35;;;;;;;6.22;1.85;;;2.30;99.90;;;;;;5030590;28;20071;-67
2023/11/29 06:14:01;;;;;;;8.40;1.70;;;2.30;99.90;;;;;;5031494;28;20045;-67
2023/11/29 06:16:26;;;;;;;4.88;1.30;;;2.40;99.90;;;;;;5029988;28;20042;-67
2023/11/29 06:18:52;;;;;;;5.18;1.52;;;2.40;99.90;;;;;;5034968;28;20040;-67
2023/11/29 06:21:17;;;;;;;5.85;1.60;;;2.40;99.90;;;;;;5039444;28;20067;-67
2023/11/29 06:23:44;;;;;;;8.70;1.20;;;2.50;99.90;;;;;;5030066;28;20045;-67
2023/11/29 06:26:09;;;;;;;4.07;1.20;;;2.50;99.90;;;;;;5028411;28;20052;-67
2023/11/29 06:28:38;;;;;;;5.00;1.30;;;2.50;99.90;;;;;;5032449;28;20033;-67
2023/11/29 06:31:06;;;;;;;6.07;1.35;;;2.50;99.90;;;;;;5033111;28;20111;-67
2023/11/29 06:33:32;;;;;;;8.23;1.60;;;2.50;99.90;;;;;;5030633;28;20078;-67
2023/11/29 06:36:01;;;;;;;4.30;1.67;;;2.50;99.90;;;;;;5031817;28;20033;-67
2023/11/29 06:38:27;;;;;;;6.55;1.70;;;2.50;99.90;;;;;;5032512;28;20041;-67
2023/11/29 06:40:53;;;;;;;6.60;1.60;;;2.50;99.90;;;;;;5030376;28;20045;-67
2023/11/29 06:43:18;;;;;;;4.25;1.67;;;2.50;99.90;;;;;;5032278;28;20045;-67
2023/11/29 06:45:46;;;;;;;7.45;2.08;;;2.50;99.90;;;;;;5033606;28;20048;-67
2023/11/29 06:48:12;;;;;;;7.28;1.90;;;2.50;99.90;;;;;;5026048;28;20504;-67
2023/11/29 06:50:37;;;;;;;8.48;2.28;;;2.50;99.90;;;;;;5031433;28;20124;-67
2023/11/29 06:53:04;;;;;;;7.70;2.25;;;2.50;99.90;;;;;;5030638;28;20049;-67
2023/11/29 06:55:31;;;;;;;5.10;2.00;;;2.50;99.90;;;;;;5026667;28;20044;-67
2023/11/29 06:57:57;;;;;;;9.52;2.45;;;2.50;99.90;;;;;;5033528;28;20046;-67
2023/11/29 07:00:23;;;;;;;7.22;2.50;;;2.50;99.90;;;;;;5031946;28;20400;-67
2023/11/29 07:02:49;;;;;;;7.78;2.75;;;2.50;99.90;;;;;;5032059;28;20085;-67
2023/11/29 07:05:15;;;;;;;6.53;2.70;;;2.50;99.90;;;;;;5026182;28;20095;-67
2023/11/29 07:07:41;;;;;;;9.02;3.00;;;2.50;99.90;;;;;;5029723;28;20435;-67
2023/11/29 07:10:07;;;;;;;6.78;2.95;;;2.50;99.90;;;;;;5026456;28;20065;-67
2023/11/29 07:12:34;;;;;;;10.15;3.28;;;2.50;99.90;;;;;;5024954;28;20041;-67
2023/11/29 07:15:00;;;;;;;8.95;3.40;;;2.50;99.90;;;;;;5029843;28;20045;-67
2023/11/29 07:17:25;;;;;;;8.63;3.65;;;2.50;99.90;;;;;;5020319;28;20041;-67
2023/11/29 07:19:51;;;;;;;11.80;3.50;;;2.50;99.90;;;;;;5020058;28;20033;-67
2023/11/29 07:22:17;;;;;;;11.10;4.28;;;2.50;99.90;;;;;;5025605;28;20035;-67
2023/11/29 07:24:47;;;;;;;15.60;4.50;;;2.50;99.90;;;;;;5026599;28;20116;-67
2023/11/29 07:27:12;;;;;;;12.88;4.57;;;2.50;99.90;;;;;;5028355;28;20042;-67
2023/11/29 07:29:38;;;;;;;13.40;4.57;;;2.50;99.90;;;;;;5023399;28;20038;-67
2023/11/29 07:32:05;;;;;;;10.48;4.63;;;2.50;99.90;;;;;;5025471;28;20056;-67
2023/11/29 07:34:31;;;;;;;9.38;4.72;;;2.50;99.90;;;;;;5025347;28;20128;-67
2023/11/29 07:36:56;;;;;;;11.98;4.70;;;2.50;99.90;;;;;;5029891;28;20125;-67
2023/11/29 07:39:22;;;;;;;14.57;5.30;;;2.50;99.90;;;;;;5030222;28;20429;-67
2023/11/29 07:41:48;;;;;;;16.10;5.53;;;2.50;99.90;;;;;;5035831;28;20519;-67
2023/11/29 07:44:14;;;;;;;14.38;5.55;;;2.50;99.90;;;;;;5028833;28;20053;-68
2023/11/29 07:46:41;;;;;;;12.85;4.97;;;2.50;99.90;;;;;;5029231;28;20056;-68
2023/11/29 07:49:07;;;;;;;16.88;5.80;;;2.50;99.90;;;;;;5030780;28;20606;-67
2023/11/29 07:51:33;;;;;;;13.95;5.45;;;2.60;99.90;;;;;;5032615;28;20036;-67
2023/11/29 07:53:59;;;;;;;11.98;5.38;;;2.60;99.90;;;;;;5034589;28;20037;-67
2023/11/29 07:56:24;;;;;;;12.52;5.30;;;2.60;99.90;;;;;;5019999;28;20052;-67
2023/11/29 07:58:50;;;;;;;12.20;5.63;;;2.70;99.90;;;;;;5028682;28;20120;-67
2023/11/29 08:01:17;;;;;;;9.07;4.82;;;2.70;99.90;;;;;;5017920;28;20140;-68
2023/11/29 08:03:42;;;;;;;12.98;4.82;;;2.70;99.90;;;;;;5041421;28;20116;-68
2023/11/29 08:06:08;;;;;;;11.02;5.03;;;2.70;99.90;;;;;;5023182;28;20730;-67
2023/11/29 08:08:34;;;;;;;9.98;5.45;;;2.70;99.90;;;;;;5028643;28;20100;-67
2023/11/29 08:11:00;;;;;;;12.52;4.80;;;2.70;99.90;;;;;;5025053;28;20031;-67
2023/11/29 08:13:26;;;;;;;11.23;4.93;;;2.70;99.90;;;;;;5029135;28;20044;-68
2023/11/29 08:15:53;;;;;;;9.43;4.20;;;2.70;99.90;;;;;;5022752;28;20038;-67
2023/11/29 08:18:19;;;;;;;8.88;4.40;;;2.70;99.90;;;;;;5026235;28;20041;-68
2023/11/29 08:20:45;;;;;;;8.55;4.47;;;2.70;99.90;;;;;;5025875;28;20048;-67
2023/11/29 08:23:11;;;;;;;8.85;4.22;;;2.70;99.90;;;;;;5030237;28;20038;-68
2023/11/29 08:25:36;;;;;;;9.40;3.90;;;2.70;99.90;;;;;;5015097;28;20083;-68
2023/11/29 08:28:02;;;;;;;8.98;3.90;;;2.70;99.90;;;;;;5032283;28;20041;-68
2023/11/29 08:30:28;;;;;;;10.93;4.60;;;2.70;99.90;;;;;;5029168;28;20073;-68
2023/11/29 08:32:53;;;;;;;7.30;4.25;;;2.70;99.90;;;;;;5028683;28;20109;-68
2023/11/29 08:35:19;;;;;;;9.52;3.92;;;2.70;99.90;;;;;;5028151;28;20439;-68
2023/11/29 08:37:44;;;;;;;6.50;4.00;;;2.70;99.90;;;;;;5024217;28;20033;-68
2023/11/29 08:40:10;;;;;;;11.13;4.10;;;2.70;99.90;;;;;;5030086;28;20389;-68
2023/11/29 08:42:36;;;;;;;11.80;3.88;;;2.60;99.90;;;;;;5029633;28;20030;-68
2023/11/29 08:45:02;;;;;;;8.30;3.75;;;2.60;99.90;;;;;;5028766;28;20056;-68
2023/11/29 08:47:28;;;;;;;9.68;4.00;;;2.60;99.90;;;;;;5026457;28;20565;-68
2023/11/29 08:49:54;;;;;;;11.77;4.32;;;2.60;99.90;;;;;;5033962;28;20037;-68
2023/11/29 08:52:22;;;;;;;9.48;3.97;;;2.50;99.90;;;;;;5022363;28;20041;-67
2023/11/29 08:54:49;;;;;;;7.95;3.70;;;2.50;99.90;;;;;;5030470;28;20071;-67
2023/11/29 08:57:17;;;;;;;11.07;4.18;;;2.50;99.90;;;;;;5029214;28;20048;-67
2023/11/29 08:59:43;;;;;;;10.68;4.38;;;2.50;99.90;;;;;;5029452;28;20030;-67
2023/11/29 09:02:09;;;;;;;9.48;4.05;;;2.40;99.90;;;;;;5028375;28;20519;-67
2023/11/29 09:04:34;;;;;;;11.68;3.60;;;2.40;99.90;;;;;;5023503;28;20038;-67
2023/11/29 09:07:04;;;;;;;5.78;3.42;;;2.40;99.90;;;;;;5028717;28;20496;-67
2023/11/29 09:09:30;;;;;;;7.03;3.63;;;2.40;99.90;;;;;;5029114;28;20034;-67
2023/11/29 09:11:56;;;;;;;9.85;3.30;;;2.40;99.90;;;;;;5028651;28;20061;-67
2023/11/29 09:14:21;;;;;;;9.02;3.22;;;2.40;99.90;;;;;;5026781;28;20042;-67
2023/11/29 09:16:47;;;;;;;9.18;3.60;;;2.40;99.90;;;;;;5023118;28;20029;-67
2023/11/29 09:19:12;;;;;;;8.48;3.55;;;2.40;99.90;;;;;;5027975;28;20034;-67
2023/11/29 09:21:38;;;;;;;8.23;3.50;;;2.40;99.90;;;;;;5024208;28;20081;-67
2023/11/29 09:24:04;;;;;;;7.05;3.47;;;2.40;99.90;;;;;;5030382;28;20503;-67
2023/11/29 09:26:30;;;;;;;5.75;3.38;;;2.40;99.90;;;;;;5027992;28;20112;-67
2023/11/29 09:28:56;;;;;;;5.90;3.33;;;2.40;99.90;;;;;;5030011;28;20034;-67
2023/11/29 09:31:21;;;;;;;9.55;3.72;;;2.40;99.90;;;;;;5028932;28;20034;-67
2023/11/29 09:33:47;;;;;;;10.45;3.33;;;2.40;99.90;;;;;;5029629;28;20523;-67
2023/11/29 09:36:15;;;;;;;6.70;3.38;;;2.40;99.90;;;;;;5032460;28;20034;-67
2023/11/29 09:38:41;;;;;;;7.85;3.40;;;2.40;99.90;;;;;;5024079;28;20232;-67
2023/11/29 09:41:06;;;;;;;9.00;3.53;;;2.40;99.90;;;;;;5021567;28;20124;-67
2023/11/29 09:43:38;;;;;;;13.70;3.47;;;2.40;99.90;;;;;;5024923;28;20049;-67
2023/11/29 09:46:04;;;;;;;6.32;2.95;;;2.40;99.90;;;;;;5027460;28;20480;-67
2023/11/29 09:48:29;;;;;;;5.50;2.97;;;2.40;99.90;;;;;;5025722;28;20053;-67
2023/11/29 09:50:56;;;;;;;12.45;3.30;;;2.40;99.90;;;;;;5024473;28;20043;-67
2023/11/29 09:53:23;;;;;;;7.50;3.40;;;2.40;99.90;;;;;;5023018;28;20068;-67
2023/11/29 09:55:49;;;;;;;6.95;3.20;;;2.40;99.90;;;;;;5031414;28;20077;-67
2023/11/29 09:58:15;;;;;;;6.10;3.30;;;2.40;99.90;;;;;;5029124;28;20454;-67
2023/11/29 10:00:41;;;;;;;5.93;3.33;;;2.40;99.90;;;;;;5030684;28;20029;-66
2023/11/29 10:03:12;;;;;;;5.18;3.10;;;2.50;99.90;;;;;;5071783;22;20051;-73
2023/11/29 10:05:38;;;;;;;8.10;3.72;;;2.50;99.90;;;;;;5045242;28;20044;-73
2023/11/29 10:08:04;;;;;;;8.10;3.38;;;2.50;99.90;;;;;;5037889;28;20045;-73
2023/11/29 10:10:36;;;;;;;13.57;3.00;;;2.50;99.90;;;;;;5043511;28;20118;-73
2023/11/29 10:13:02;;;;;;;8.07;3.10;;;2.60;99.90;;;;;;5039731;28;20118;-73
2023/11/29 10:15:28;;;;;;;7.50;3.05;;;2.50;99.90;;;;;;5042537;28;20053;-73
2023/11/29 10:17:54;;;;;;;7.30;3.20;;;2.60;99.90;;;;;;5058216;28;20036;-73
2023/11/29 10:20:25;;;;;;;7.35;3.55;;;2.60;99.90;;;;;;5042522;28;20470;-73
2023/11/29 10:22:51;;;;;;;8.20;3.10;;;2.60;99.90;;;;;;5041129;28;20052;-73
2023/11/29 10:25:19;;;;;;;12.70;3.50;;;2.60;99.90;;;;;;5058056;28;20044;-73
2023/11/29 10:27:45;;;;;;;5.00;3.10;;;2.60;99.90;;;;;;5039516;28;20044;-73
2023/11/29 10:30:15;;;;;;;6.65;3.22;;;2.60;99.90;;;;;;5043459;28;20045;-73
2023/11/29 10:32:42;;;;;;;9.73;3.03;;;2.70;99.90;;;;;;5040238;28;20048;-73
2023/11/29 10:35:12;;;;;;;7.22;3.28;;;2.70;99.90;;;;;;5039315;28;20425;-73
2023/11/29 10:37:42;;;;;;;7.75;3.70;;;2.70;99.90;;;;;;5042453;28;20045;-74
2023/11/29 10:40:14;;;;;;;7.78;3.45;;;2.70;99.90;;;;;;5037265;28;20080;-75
2023/11/29 10:42:42;;;;;;;9.17;3.50;;;2.30;99.90;;;;;;5063751;28;20065;-74
2023/11/29 10:45:10;;;;;;;8.80;3.20;;;2.70;99.90;;;;;;5056374;28;20274;-73
2023/11/29 10:47:39;;;;;;;8.65;3.38;;;2.70;99.90;;;;;;5038568;28;20045;-74
2023/11/29 10:50:09;;;;;;;10.38;3.35;;;2.70;99.90;;;;;;5035601;28;20481;-73
2023/11/29 10:52:35;;;;;;;5.03;2.88;;;2.70;99.90;;;;;;5066827;28;20037;-74
2023/11/29 10:55:01;;;;;;;9.30;3.30;;;2.70;99.90;;;;;;5054674;28;20045;-73
2023/11/29 10:57:38;;;;;;;8.40;3.00;;;2.80;99.90;;;;;;5061324;28;20052;-74
2023/11/29 11:00:15;;;;;;;7.90;3.28;;;2.70;99.90;;;;;;5056703;28;20509;-73
2023/11/29 11:02:46;;;;;;;5.20;2.83;;;2.80;99.90;;;;;;5036308;28;20037;-73
2023/11/29 11:05:12;;;;;;;7.53;3.03;;;2.70;99.90;;;;;;5045097;28;20091;-75
2023/11/29 11:07:45;;;;;;;6.05;2.50;;;2.80;99.90;;;;;;5044375;28;20068;-73
2023/11/29 11:10:12;;;;;;;7.68;3.03;;;2.80;99.90;;;;;;5044302;28;20051;-74
2023/11/29 11:12:38;;;;;;;5.32;2.90;;;2.30;99.90;;;;;;5046253;28;20113;-73
2023/11/29 11:15:14;;;;;;;9.43;3.15;;;2.80;99.90;;;;;;5048703;28;20045;-73
2023/11/29 11:17:42;;;;;;;5.35;2.80;;;2.90;99.90;;;;;;5023292;28;20086;-73
2023/11/29 11:20:09;;;;;;;9.10;2.75;;;2.90;99.90;;;;;;5048086;28;20044;-73
2023/11/29 11:22:42;;;;;;;7.32;3.08;;;2.90;99.90;;;;;;5062110;28;20588;-73
2023/11/29 11:25:16;;;;;;;5.93;2.75;;;3.00;99.90;;;;;;5042042;28;20052;-73
2023/11/29 11:27:48;;;;;;;8.02;2.80;;;3.10;99.90;;;;;;5042754;28;20440;-73
2023/11/29 11:30:14;;;;;;;;;;;3.10;99.90;;;;;;5050949;28;20515;-73
2023/11/29 11:32:42;;;;;;;3.85;2.35;;;3.20;99.90;;;;;;5055394;28;20007;-74
2023/11/29 11:35:21;;;;;;;7.25;2.95;;;3.20;99.90;;;;;;5048990;28;20049;-74
2023/11/29 11:37:51;;;;;;;5.55;2.60;;;3.30;99.90;;;;;;5042293;28;20041;-74
2023/11/29 11:40:17;;;;;;;7.93;3.25;;;3.30;99.90;;;;;;5041746;28;20547;-73
2023/11/29 11:42:44;;;;;;;9.60;2.55;;;3.40;99.90;;;;;;5034407;28;20401;-73
2023/11/29 11:45:12;;;;;;;9.77;2.50;;;3.40;99.90;;;;;;5043426;28;20044;-74
2023/11/29 11:47:38;;;;;;;6.03;2.35;;;3.40;99.90;;;;;;5036710;28;20056;-74
2023/11/29 11:50:04;;;;;;;8.95;2.47;;;3.40;99.90;;;;;;5038793;28;20520;-74
2023/11/29 11:52:39;;;;;;;5.45;2.33;;;3.50;99.90;;;;;;5044037;28;20064;-74
2023/11/29 11:55:10;;;;;;;6.60;2.70;;;3.50;99.90;;;;;;5034151;28;20041;-74
2023/11/29 11:57:38;;;;;;;5.90;2.42;;;3.50;99.90;;;;;;5060736;28;20484;-74
2023/11/29 12:00:05;;;;;;;9.00;2.80;;;3.50;99.90;;;;;;5059921;28;20036;-75
2023/11/29 12:02:30;;;;;;;4.43;2.40;;;3.60;99.90;;;;;;5045494;28;20489;-74
2023/11/29 12:04:56;;;;;;;5.05;2.45;;;3.60;99.90;;;;;;5035621;28;20070;-74
2023/11/29 12:07:22;;;;;;;5.18;2.67;;;3.70;99.90;;;;;;5036752;28;20037;-74
2023/11/29 12:09:49;;;;;;;7.32;2.40;;;3.70;99.90;;;;;;5040149;28;20040;-75
2023/11/29 12:12:15;;;;;;;7.93;2.90;;;3.70;99.90;;;;;;5041265;28;20634;-74
2023/11/29 12:14:45;;;;;;;5.03;2.58;;;3.80;99.90;;;;;;5043079;28;20048;-74
2023/11/29 12:17:12;;;;;;;9.40;2.88;;;3.80;99.90;;;;;;5064299;28;20044;-74
2023/11/29 12:19:40;;;;;;;6.53;2.63;;;3.80;99.90;;;;;;5042968;28;20106;-74
2023/11/29 12:22:06;;;;;;;7.25;2.90;;;3.80;99.90;;;;;;5042043;28;20091;-74
2023/11/29 12:24:58;;;;;;;7.82;2.58;;;3.80;99.90;;;;;;5046441;28;20041;-74
2023/11/29 12:27:27;;;;;;;6.60;2.53;;;3.80;99.90;;;;;;5061409;28;20186;-74
2023/11/29 12:29:58;;;;;;;6.75;2.70;;;3.80;99.90;;;;;;5057410;28;20290;-74
2023/11/29 12:32:28;;;;;;;9.05;2.78;;;3.70;99.90;;;;;;5039682;28;20501;-74
2023/11/29 12:34:56;;;;;;;5.22;2.40;;;3.70;99.90;;;;;;5051319;28;20059;-74
2023/11/29 12:37:23;;;;;;;6.07;3.15;;;3.70;99.90;;;;;;5040894;28;20045;-74
2023/11/29 12:39:50;;;;;;;12.68;3.00;;;3.70;99.90;;;;;;5044889;28;20040;-75
2023/11/29 12:42:15;;;;;;;7.07;2.67;;;3.60;99.90;;;;;;5071148;28;20040;-74
2023/11/29 12:44:42;;;;;;;6.47;2.60;;;3.60;99.90;;;;;;5042395;28;20102;-74
2023/11/29 12:47:08;;;;;;;8.48;3.00;;;3.60;99.90;;;;;;5045458;28;20041;-74
2023/11/29 12:49:34;;;;;;;7.80;2.88;;;3.60;99.90;;;;;;5066711;28;20025;-75
2023/11/29 12:52:00;;;;;;;6.78;2.90;;;3.50;99.90;;;;;;5041041;28;20045;-74